メインページ
METAR-TAF:

METAR-TAF

空港 :

Chah Bahar, イラン

緯度: 25-25N, 経度: 060-45E, 海抜: 6m

現時点の気象観測

当レポートは2時間41分前の15:00(UTC)に作成
の風 14kt、最大26ktの突風を伴う
気温 21°C
湿度 83%
気圧 1013 hPa
視程: 3000m
高度3500ftの雲はほとんどない
高度9000ftの雲は散在している
砂,

METAR: OIZC 271500Z 10014G26KT 3000 SA FEW035 SCT090 21/18 Q1013 A2992

時間: 21:11 (17:41 UTC)


TAF: 見つかりません

4,000以上の空港の気象観測と天気予報(METAR報とTAF報)

利用可能な観測所は地図上に黄色い丸と赤い丸で示す。

丸の上にカーソルを重ねると観測所名を参照できる。

次にクリックすると気象観測と天気予報を参照できる。

マップの切り替え:黒色「×」印の緑ボタンをクリックして拡大、「-」印の緑ボタンをクリックして縮小、緑色の三角印をクリックして隣りの地図に切り替え


METAR-TAF: